Time;durP1;ratioP1;P1;durP2;ratioP2;P2;SDS_P1;SDS_P2;PMS_P1;PMS_P2;Temp;Humidity;BMP_temperature;BMP_pressure;BME280_temperature;BME280_humidity;BME280_pressure;Samples;Min_cycle;Max_cycle;Signal;HPM_P1;HPM_P2
2023/10/26 00:02:21;;;;;;;;;;;14.10;62.70;;;13.07;62.71;99137.16;12276541;19;19914;-84
2023/10/26 00:06:23;;;;;;;;;;;14.20;62.50;;;13.07;62.70;99143.19;12274334;19;19921;-84
2023/10/26 00:10:25;;;;;;;;;;;14.20;62.50;;;13.05;62.55;99142.50;12276656;19;19907;-83
2023/10/26 00:14:26;;;;;;;;;;;14.10;62.40;;;12.94;62.62;99123.50;12281153;19;19931;-84
2023/10/26 00:18:28;;;;;;;;;;;14.20;62.80;;;12.96;62.58;99113.69;12277694;19;19922;-83
2023/10/26 00:22:29;;;;;;;;;;;14.10;62.50;;;13.08;62.60;99128.31;12275523;19;19931;-83
2023/10/26 00:26:31;;;;;;;;;;;14.20;62.50;;;13.05;62.64;99118.09;12274869;19;19939;-84
2023/10/26 00:30:33;;;;;;;;;;;14.20;62.70;;;12.96;62.64;99090.94;12268655;19;19919;-84
2023/10/26 00:34:35;;;;;;;;;;;14.20;62.80;;;13.06;62.74;99104.84;12267697;19;19915;-82
2023/10/26 00:38:38;;;;;;;;;;;14.20;63.10;;;13.09;62.59;99101.13;12265430;19;19915;-83
2023/10/26 00:42:39;;;;;;;;;;;14.20;63.00;;;13.09;62.72;99103.75;12266110;19;19918;-83
2023/10/26 00:46:41;;;;;;;;;;;14.10;63.00;;;13.02;62.78;99084.31;12264729;19;19919;-83
2023/10/26 00:50:43;;;;;;;;;;;14.20;63.10;;;12.99;62.68;99074.13;12258396;19;19907;-84
2023/10/26 00:54:44;;;;;;;;;;;14.20;63.90;;;13.04;62.63;99077.13;12265796;19;19946;-83
2023/10/26 00:58:47;;;;;;;;;;;14.20;63.60;;;13.04;62.66;99082.38;12261417;19;19927;-83
2023/10/26 01:02:49;;;;;;;;;;;14.20;63.30;;;12.99;62.56;99061.03;12264838;19;19915;-83
2023/10/26 01:06:50;;;;;;;;;;;14.20;63.30;;;13.02;62.80;99058.94;12275871;19;19919;-83
2023/10/26 01:10:52;;;;;;;;;;;14.20;64.20;;;12.96;62.78;99056.88;12274377;19;20560;-83
2023/10/26 01:14:54;;;;;;;;;;;14.20;63.30;;;13.04;62.77;99058.78;12275740;19;19922;-83
2023/10/26 01:18:58;;;;;;;;;;;14.20;64.20;;;12.99;62.80;99053.16;12279736;19;20360;-83
2023/10/26 01:23:00;;;;;;;;;;;14.20;64.40;;;12.73;62.71;99011.84;12279229;19;19915;-84
2023/10/26 01:27:02;;;;;;;;;;;14.20;63.90;;;13.03;62.88;99057.97;12284718;19;20337;-83
2023/10/26 01:31:03;;;;;;;;;;;14.10;63.30;;;12.93;62.74;99040.59;12278839;19;19929;-84
2023/10/26 01:35:05;;;;;;;;;;;14.20;63.70;;;13.01;62.84;99048.59;12284463;19;19926;-82
2023/10/26 01:39:07;;;;;;;;;;;14.20;63.80;;;12.96;62.82;99035.06;12285994;19;19918;-83
2023/10/26 01:43:08;;;;;;;;;;;14.10;63.80;;;13.01;62.94;99044.16;12286583;19;19915;-83
2023/10/26 01:47:12;;;;;;;;;;;14.10;63.70;;;13.00;62.67;99033.84;12289987;19;19919;-83
2023/10/26 01:51:14;;;;;;;;;;;14.10;63.80;;;12.99;62.85;99025.16;12282134;19;19931;-84
2023/10/26 01:55:16;;;;;;;;;;;14.20;63.90;;;13.00;62.80;99029.41;12279891;19;19929;-82
2023/10/26 01:59:17;;;;;;;;;;;14.10;64.00;;;13.01;62.85;99027.63;12278499;19;19915;-83
2023/10/26 02:03:18;;;;;;;;;;;14.20;63.60;;;12.96;63.00;99017.59;12280181;19;19918;-83
2023/10/26 02:07:20;;;;;;;;;;;14.20;64.40;;;12.97;62.89;99013.16;12278173;19;19917;-83
2023/10/26 02:11:21;;;;;;;;;;;14.10;64.00;;;12.90;62.91;98993.72;12276105;19;19952;-84
2023/10/26 02:15:23;;;;;;;;;;;14.10;63.60;;;13.00;62.90;98999.78;12280079;19;19925;-83
2023/10/26 02:19:24;;;;;;;;;;;14.20;63.70;;;13.10;62.86;99005.81;12278336;19;19910;-83
2023/10/26 02:23:26;;;;;;;;;;;14.20;64.20;;;13.01;62.97;98991.75;12277169;19;19939;-83
2023/10/26 02:27:27;;;;;;;;;;;14.20;64.00;;;13.15;62.98;99002.75;12277652;19;19910;-83
2023/10/26 02:31:29;;;;;;;;;;;14.20;63.90;;;13.16;62.84;98994.75;12272993;19;19922;-82
2023/10/26 02:35:30;;;;;;;;;;;14.20;63.80;;;13.13;62.91;98992.44;12275726;19;19926;-83
2023/10/26 02:39:32;;;;;;;;;;;14.20;65.00;;;13.00;62.92;98968.34;12270868;19;19934;-83
2023/10/26 02:43:33;;;;;;;;;;;14.20;65.00;;;13.05;63.09;98981.84;12276479;19;19915;-83
2023/10/26 02:47:37;;;;;;;;;;;14.20;64.40;;;13.12;62.89;98993.38;12270001;19;19934;-84
2023/10/26 02:51:38;;;;;;;;;;;14.20;64.40;;;13.11;62.90;98976.00;12276209;19;19996;-83
2023/10/26 02:55:41;;;;;;;;;;;14.30;65.50;;;13.13;63.06;98981.13;12274609;19;19923;-83
2023/10/26 02:59:43;;;;;;;;;;;14.20;65.30;;;13.13;62.98;98983.75;12274209;19;19918;-85
2023/10/26 03:03:45;;;;;;;;;;;14.20;65.00;;;13.16;63.10;98988.69;12282495;19;19926;-84
2023/10/26 03:07:46;;;;;;;;;;;14.20;65.00;;;13.06;62.99;98959.88;12277492;19;19926;-85
2023/10/26 03:11:48;;;;;;;;;;;14.20;64.90;;;13.10;63.05;98963.88;12283111;19;19915;-83
2023/10/26 03:15:50;;;;;;;;;;;14.20;65.20;;;13.18;63.04;98977.09;12272432;19;19922;-83
2023/10/26 03:19:52;;;;;;;;;;;14.30;64.90;;;13.19;63.04;98973.50;12281508;19;19919;-83
2023/10/26 03:23:53;;;;;;;;;;;14.30;64.30;;;13.03;62.96;98947.09;12287870;19;19926;-84
2023/10/26 03:27:55;;;;;;;;;;;14.30;64.70;;;13.20;63.04;98976.94;12282826;19;19927;-83
2023/10/26 03:31:57;;;;;;;;;;;14.30;64.30;;;13.12;63.02;98959.31;12275870;19;19939;-82
2023/10/26 03:35:58;;;;;;;;;;;14.30;65.10;;;13.18;63.11;98969.22;12279100;19;20293;-83
2023/10/26 03:40:00;;;;;;;;;;;14.30;65.10;;;13.15;63.07;98960.81;12272174;19;19938;-84
2023/10/26 03:44:01;;;;;;;;;;;14.30;64.90;;;13.16;63.06;98960.69;12275460;19;19930;-84
2023/10/26 03:48:03;;;;;;;;;;;14.30;64.60;;;13.11;62.90;98952.44;12276710;19;19982;-83
2023/10/26 03:52:05;;;;;;;;;;;14.30;64.40;;;13.13;63.08;98957.53;12276090;19;19942;-83
2023/10/26 03:56:06;;;;;;;;;;;14.30;64.90;;;13.15;63.08;98955.56;12277433;19;19948;-83
2023/10/26 04:00:09;;;;;;;;;;;14.30;64.50;;;13.23;63.17;98955.66;12262079;19;19915;-84
2023/10/26 04:04:14;;;;;;;;;;;14.30;64.50;;;13.23;63.13;98953.06;12266262;19;19929;-83
2023/10/26 04:08:15;;;;;;;;;;;14.30;64.60;;;13.27;63.03;98952.66;12269586;19;20319;-83
2023/10/26 04:12:17;;;;;;;;;;;14.30;64.50;;;13.31;63.07;98949.75;12270370;19;19947;-84
2023/10/26 04:16:18;;;;;;;;;;;14.30;64.50;;;13.32;63.15;98940.91;12266744;19;20352;-83
2023/10/26 04:20:22;;;;;;;;;;;14.40;64.70;;;13.26;63.11;98932.66;12256430;19;19958;-83
2023/10/26 04:24:24;;;;;;;;;;;14.40;64.60;;;13.28;62.99;98929.88;12265892;19;19929;-84
2023/10/26 04:28:25;;;;;;;;;;;14.40;64.60;;;13.06;62.99;98902.25;12263819;19;19933;-83
2023/10/26 04:32:26;;;;;;;;;;;14.40;64.70;;;13.27;63.11;98928.25;12257482;19;19911;-83
2023/10/26 04:36:27;;;;;;;;;;;14.40;64.80;;;13.30;62.99;98938.44;12267679;19;19918;-83
2023/10/26 04:40:29;;;;;;;;;;;14.40;64.90;;;13.26;63.06;98932.66;12256702;19;19950;-83
2023/10/26 04:44:31;;;;;;;;;;;14.40;64.80;;;13.32;63.09;98943.53;12257456;19;20355;-83
2023/10/26 04:48:33;;;;;;;;;;;14.40;64.80;;;13.27;63.05;98934.31;12258667;19;19914;-83
2023/10/26 04:52:34;;;;;;;;;;;14.40;64.40;;;13.28;63.04;98935.13;12265693;19;20027;-83
2023/10/26 04:56:36;;;;;;;;;;;14.40;64.30;;;13.32;63.01;98940.91;12268804;19;19923;-83
2023/10/26 05:00:38;;;;;;;;;;;14.40;64.50;;;13.27;63.12;98930.88;12271017;19;19919;-83
2023/10/26 05:04:39;;;;;;;;;;;14.40;64.30;;;13.33;62.98;98937.31;12270545;19;19918;-83
2023/10/26 05:08:41;;;;;;;;;;;14.40;64.30;;;13.33;63.04;98935.50;12270530;19;19922;-85
2023/10/26 05:12:42;;;;;;;;;;;14.40;64.80;;;13.33;63.02;98937.31;12267606;19;19918;-83
2023/10/26 05:16:44;;;;;;;;;;;14.40;64.90;;;13.28;63.16;98925.50;12266206;19;19929;-84
2023/10/26 05:20:48;;;;;;;;;;;14.40;64.90;;;13.27;63.10;98926.44;12262692;19;20255;-83
2023/10/26 05:24:50;;;;;;;;;;;14.40;64.90;;;13.26;63.07;98916.13;12267036;19;19943;-83
2023/10/26 05:28:52;;;;;;;;;;;14.40;64.70;;;13.25;63.13;98914.41;12266937;19;19951;-84
2023/10/26 05:32:53;;;;;;;;;;;14.40;64.70;;;13.11;63.13;98902.63;12268823;19;19938;-83
2023/10/26 05:36:55;;;;;;;;;;;14.40;64.30;;;13.21;63.07;98913.06;12279236;19;19945;-84
2023/10/26 05:40:57;;;;;;;;;;;14.40;65.10;;;13.27;63.08;98934.31;12275364;19;19919;-83
2023/10/26 05:44:58;;;;;;;;;;;14.40;65.60;;;13.16;63.15;98921.38;12271647;19;19918;-84
2023/10/26 05:49:00;;;;;;;;;;;14.40;64.60;;;13.22;63.06;98925.19;12257664;19;19939;-83
2023/10/26 05:53:01;;;;;;;;;;;14.30;64.80;;;13.06;63.18;98910.09;12275652;19;19926;-83
2023/10/26 05:57:03;;;;;;;;;;;14.30;65.20;;;13.22;63.08;98936.50;12279648;19;19923;-83
2023/10/26 06:01:05;;;;;;;;;;;14.30;65.30;;;13.19;63.13;98936.81;12279877;19;19934;-83
2023/10/26 06:05:08;;;;;;;;;;;14.30;65.40;;;13.22;63.33;98939.13;12255679;19;19922;-83
2023/10/26 06:09:10;;;;;;;;;;;14.30;65.50;;;13.21;63.25;98940.09;12258954;19;20344;-83
2023/10/26 06:13:13;;;;;;;;;;;14.20;65.70;;;13.11;63.26;98914.91;12266563;19;20420;-81
2023/10/26 06:17:15;;;;;;;;;;;14.30;65.10;;;13.26;63.26;98951.00;12270951;19;20600;-82
2023/10/26 06:21:17;;;;;;;;;;;14.30;66.30;;;13.25;63.26;98951.13;12257478;19;20237;-81
2023/10/26 06:25:18;;;;;;;;;;;14.30;65.30;;;13.23;63.26;98948.66;12259250;19;19975;-81
2023/10/26 06:29:19;;;;;;;;;;;14.30;66.10;;;13.23;63.19;98948.66;12252073;19;19952;-83
2023/10/26 06:33:21;;;;;;;;;;;14.30;65.10;;;13.11;63.18;98936.69;12257339;19;19919;-81
2023/10/26 06:37:23;;;;;;;;;;;14.30;65.10;;;13.21;63.15;98944.53;12250475;19;19919;-80
2023/10/26 06:41:24;;;;;;;;;;;14.30;65.10;;;13.28;63.21;98953.47;12248482;19;20428;-81
2023/10/26 06:45:26;;;;;;;;;;;14.30;65.10;;;13.25;63.28;98948.50;12255460;19;20397;-81
2023/10/26 06:49:28;;;;;;;;;;;14.30;64.90;;;13.30;63.20;98948.91;12248687;19;19919;-81
2023/10/26 06:53:30;;;;;;;;;;;14.40;65.00;;;13.28;63.26;98951.69;12255944;19;19926;-81
2023/10/26 06:57:35;;;;;;;;;;;14.40;65.00;;;13.12;63.17;98933.09;12249725;19;19938;-82
2023/10/26 07:01:38;;;;;;;;;;;14.40;64.80;;;13.25;63.17;98954.56;12251844;19;19911;-81
2023/10/26 07:05:40;;;;;;;;;;;14.40;64.60;;;13.34;63.21;98970.41;12250173;19;19937;-81
2023/10/26 07:09:42;;;;;;;;;;;14.40;64.70;;;13.35;63.14;98970.28;12253376;19;19982;-82
2023/10/26 07:13:45;;;;;;;;;;;14.40;64.50;;;13.36;63.10;98974.53;12256939;19;20246;-82
2023/10/26 07:17:47;;;;;;;;;;;14.40;64.60;;;13.27;63.26;98954.47;12255258;19;19914;-83
2023/10/26 07:21:49;;;;;;;;;;;14.40;64.90;;;13.25;63.21;98953.75;12255207;19;19934;-82
2023/10/26 07:25:50;;;;;;;;;;;14.50;64.60;;;13.36;63.28;98973.72;12255373;19;19911;-82
2023/10/26 07:29:52;;;;;;;;;;;14.50;64.60;;;13.34;63.20;98975.66;12253718;19;19922;-82
2023/10/26 07:33:54;;;;;;;;;;;14.50;64.50;;;13.35;63.24;98977.31;12245180;19;20621;-82
2023/10/26 07:37:55;;;;;;;;;;;14.70;65.20;;;13.44;63.28;98997.41;12249889;19;19911;-81
2023/10/26 07:41:57;;;;;;;;;;;14.50;64.60;;;13.46;63.29;98991.06;12251481;19;19975;-82
2023/10/26 07:45:58;;;;;;;;;;;14.60;64.60;;;13.36;63.39;98987.66;12248672;19;19922;-82
2023/10/26 07:50:00;;;;;;;;;;;14.60;64.60;;;13.43;63.39;98993.16;12250858;19;19918;-81
2023/10/26 07:54:01;;;;;;;;;;;14.60;64.50;;;13.48;63.27;99004.84;12249394;19;19922;-81
2023/10/26 07:58:03;;;;;;;;;;;14.60;64.40;;;13.55;63.34;99012.94;12248324;19;20274;-82
2023/10/26 08:02:04;;;;;;;;;;;14.70;64.50;;;13.47;63.47;99002.38;12247348;19;19930;-83
2023/10/26 08:06:08;;;;;;;;;;;14.70;64.30;;;13.57;63.41;99018.88;12244221;19;19986;-83
2023/10/26 08:10:09;;;;;;;;;;;14.70;64.50;;;13.46;63.54;99003.34;12245830;19;19986;-83
2023/10/26 08:14:11;;;;;;;;;;;14.70;64.40;;;13.59;63.36;99011.69;12248760;19;20375;-83
2023/10/26 08:18:13;;;;;;;;;;;14.70;64.20;;;13.49;63.29;98996.00;12248652;19;20287;-83
2023/10/26 08:22:14;;;;;;;;;;;14.70;65.10;;;13.47;63.37;98992.72;12251796;19;19918;-83
2023/10/26 08:26:15;;;;;;;;;;;14.70;64.70;;;13.50;63.28;99002.06;12248848;19;20270;-83
2023/10/26 08:30:17;;;;;;;;;;;14.70;64.50;;;13.58;63.28;99019.72;12248713;19;19923;-83
2023/10/26 08:34:18;;;;;;;;;;;14.80;64.60;;;13.52;63.46;99005.38;12249273;19;19918;-83
2023/10/26 08:38:19;;;;;;;;;;;14.70;64.60;;;13.53;63.40;99014.91;12241817;19;19947;-83
2023/10/26 08:42:20;;;;;;;;;;;14.70;64.50;;;13.65;63.28;99037.34;12244524;19;20349;-83
2023/10/26 08:46:22;;;;;;;;;;;14.70;64.60;;;13.67;63.42;99035.41;12242643;19;19919;-83
2023/10/26 08:50:24;;;;;;;;;;;14.70;64.50;;;13.68;63.36;99034.41;12240236;19;20031;-84
2023/10/26 08:54:26;;;;;;;;;;;14.80;64.50;;;13.69;63.45;99045.72;12242706;19;19926;-83
2023/10/26 08:58:28;;;;;;;;;;;14.80;64.50;;;13.68;63.47;99052.78;12240997;19;19952;-83
2023/10/26 09:02:29;;;;;;;;;;;14.80;64.40;;;13.72;63.43;99055.97;12242871;19;19919;-83
2023/10/26 09:06:45;;;;;;;;;;;14.80;64.40;;;13.65;63.39;99049.63;12244469;19;19914;-83
2023/10/26 09:10:47;;;;;;;;;;;14.80;64.30;;;13.77;63.50;99073.88;12238631;19;19932;-83
2023/10/26 09:15:08;;;;;;;;;;;14.90;64.50;;;13.72;63.42;99053.34;12244118;19;19929;-83
2023/10/26 09:19:11;;;;;;;;;;;14.90;64.50;;;13.76;63.48;99064.34;12243591;19;19918;-82
2023/10/26 09:23:27;;;;;;;;;;;14.90;64.40;;;13.69;63.33;99057.06;12243160;19;20568;-82
2023/10/26 09:27:28;;;;;;;;;;;14.90;64.30;;;13.77;63.28;99061.59;12251132;19;20285;-83
2023/10/26 09:31:30;;;;;;;;;;;14.90;64.30;;;13.82;63.55;99079.50;12249501;19;19930;-82
2023/10/26 09:35:32;;;;;;;;;;;15.00;64.40;;;13.85;63.44;99077.44;12252488;19;19925;-82
2023/10/26 09:39:36;;;;;;;;;;;15.00;64.30;;;13.59;63.47;99035.31;12248959;19;19961;-83
2023/10/26 09:43:41;;;;;;;;;;;15.00;64.40;;;13.71;63.37;99047.25;12261354;19;19919;-84
2023/10/26 09:47:43;;;;;;;;;;;15.00;64.30;;;13.84;63.32;99077.56;12261301;19;19935;-83
2023/10/26 09:51:45;;;;;;;;;;;15.00;64.30;;;13.79;63.44;99066.69;12264694;19;19919;-83
2023/10/26 09:55:50;;;;;;;;;;;15.00;64.30;;;13.88;63.50;99076.28;12264634;19;19967;-84
2023/10/26 09:59:53;;;;;;;;;;;15.00;64.40;;;13.95;63.38;99090.47;12261651;19;20364;-83
2023/10/26 10:03:54;;;;;;;;;;;15.10;64.40;;;13.94;63.38;99088.84;12262776;19;19923;-83
2023/10/26 10:07:56;;;;;;;;;;;15.10;64.50;;;13.93;63.58;99088.03;12256870;19;19930;-83
2023/10/26 10:12:03;;;;;;;;;;;15.10;64.40;;;14.02;63.50;99093.38;12267135;19;19932;-83
2023/10/26 10:16:05;;;;;;;;;;;15.10;64.50;;;13.96;63.51;99081.66;12266362;19;19925;-83
2023/10/26 10:20:18;;;;;;;;;;;15.10;64.50;;;14.06;63.51;99095.53;12262642;19;20317;-83
2023/10/26 10:24:42;;;;;;;;;;;15.20;65.20;;;14.08;63.43;99096.22;12255904;19;19959;-85
2023/10/26 10:28:50;;;;;;;;;;;15.20;64.40;;;14.09;63.43;99100.47;12262540;19;19947;-82
2023/10/26 10:32:53;;;;;;;;;;;15.20;64.40;;;14.06;63.43;99092.09;12273552;19;20384;-84
2023/10/26 10:37:11;;;;;;;;;;;15.20;64.50;;;14.12;63.48;99096.72;12269351;19;19919;-83
2023/10/26 10:41:14;;;;;;;;;;;15.20;64.40;;;14.08;63.47;99090.16;12253315;19;19938;-82
2023/10/26 10:45:19;;;;;;;;;;;15.30;64.50;;;14.05;63.57;99086.00;12250873;19;20345;-82
2023/10/26 10:49:23;;;;;;;;;;;15.30;64.40;;;14.17;63.50;99099.75;12270918;19;19930;-83
2023/10/26 10:53:27;;;;;;;;;;;15.30;64.40;;;14.11;63.62;99080.16;12267122;19;19919;-82
2023/10/26 10:57:29;;;;;;;;;;;15.30;64.50;;;14.19;63.52;99094.38;12265792;19;20160;-83
2023/10/26 11:01:31;;;;;;;;;;;15.30;64.40;;;14.20;63.49;99102.06;12264715;19;19919;-85
2023/10/26 11:05:39;;;;;;;;;;;15.20;64.20;;;14.09;63.65;99076.03;12275810;19;19935;-83
2023/10/26 11:09:41;;;;;;;;;;;15.30;64.40;;;14.15;63.49;99091.22;12249737;19;19915;-83
2023/10/26 11:13:42;;;;;;;;;;;15.40;64.50;;;14.23;63.49;99103.56;12250299;19;19907;-82
2023/10/26 11:17:44;;;;;;;;;;;15.40;64.70;;;14.20;63.63;99096.00;12248652;19;20009;-82
2023/10/26 11:21:46;;;;;;;;;;;15.40;64.50;;;14.12;63.40;99086.25;12258192;19;19909;-83
2023/10/26 11:25:47;;;;;;;;;;;15.40;64.50;;;14.28;63.48;99107.41;12254883;19;19915;-83
2023/10/26 11:30:05;;;;;;;;;;;15.40;64.60;;;14.27;63.61;99108.41;12257476;19;19926;-83
2023/10/26 11:34:08;;;;;;;;;;;15.40;64.60;;;14.27;63.63;99113.66;12277985;19;19947;-83
2023/10/26 11:38:09;;;;;;;;;;;15.40;64.40;;;14.30;63.54;99105.47;12251669;19;19978;-83
2023/10/26 11:42:10;;;;;;;;;;;15.40;64.40;;;14.28;63.63;99107.41;12256963;19;19954;-82
2023/10/26 11:46:12;;;;;;;;;;;15.40;64.50;;;14.31;63.67;99112.38;12272625;19;19922;-83
2023/10/26 11:50:24;;;;;;;;;;;15.50;64.60;;;14.36;63.57;99118.00;12281472;19;20253;-85
2023/10/26 11:54:26;;;;;;;;;;;15.50;64.50;;;14.30;63.46;99109.91;12288657;19;19918;-85
2023/10/26 11:58:27;;;;;;;;;;;15.50;64.50;;;14.30;63.46;99109.91;12286884;19;19939;-83
2023/10/26 12:02:29;;;;;;;;;;;15.50;64.50;;;14.31;63.50;99124.66;12289633;19;19955;-84
2023/10/26 12:06:30;;;;;;;;;;;15.50;64.40;;;14.29;63.55;99124.84;12273293;19;19978;-83
2023/10/26 12:10:32;;;;;;;;;;;15.50;64.40;;;14.36;63.55;99136.38;12259495;19;19918;-83
2023/10/26 12:14:33;;;;;;;;;;;15.50;64.50;;;14.20;63.63;99111.75;12274591;19;20560;-84
2023/10/26 12:18:35;;;;;;;;;;;15.50;64.60;;;14.38;63.58;99146.75;12284596;19;19919;-84
2023/10/26 12:22:37;;;;;;;;;;;15.50;64.50;;;14.37;63.54;99135.41;12278481;19;19927;-83
2023/10/26 12:26:38;;;;;;;;;;;15.50;64.50;;;14.28;63.58;99122.34;12272442;19;19930;-83
2023/10/26 12:30:40;;;;;;;;;;;15.50;64.60;;;14.37;63.50;99139.84;12267710;19;19930;-83
2023/10/26 12:34:42;;;;;;;;;;;15.50;64.60;;;14.41;63.52;99153.50;12264470;19;20776;-82
2023/10/26 12:38:43;;;;;;;;;;;15.60;64.60;;;14.42;63.65;99153.38;12251945;19;19935;-83
2023/10/26 12:42:45;;;;;;;;;;;15.50;64.60;;;14.41;63.50;99154.31;12261229;19;19922;-83
2023/10/26 12:46:50;;;;;;;;;;;15.50;64.60;;;14.46;63.63;99161.78;12260811;19;19911;-83
2023/10/26 12:50:52;;;;;;;;;;;15.60;64.70;;;14.37;63.55;99150.34;12260329;19;19923;-83
2023/10/26 12:54:53;;;;;;;;;;;15.60;64.70;;;14.44;63.56;99151.41;12261006;19;19922;-83
2023/10/26 12:58:55;;;;;;;;;;;15.60;64.70;;;14.40;63.53;99155.31;12265572;19;19961;-83
2023/10/26 13:02:56;;;;;;;;;;;15.60;64.70;;;14.31;63.61;99143.06;12298997;19;19919;-83
2023/10/26 13:06:58;;;;;;;;;;;15.60;64.60;;;14.49;63.67;99171.97;12296336;19;19923;-85
2023/10/26 13:11:00;;;;;;;;;;;15.60;64.40;;;14.48;63.49;99176.41;12293491;19;19923;-83
2023/10/26 13:15:01;;;;;;;;;;;15.60;64.40;;;14.46;63.53;99173.09;12296479;19;19915;-83
2023/10/26 13:19:03;;;;;;;;;;;15.60;64.40;;;14.10;63.58;99115.28;12295335;19;19925;-83
2023/10/26 13:23:05;;;;;;;;;;;15.60;64.40;;;14.36;63.50;99162.63;12294617;19;19918;-84
2023/10/26 13:27:07;;;;;;;;;;;15.50;64.30;;;14.46;63.54;99185.41;12295168;19;19922;-84
2023/10/26 13:31:08;;;;;;;;;;;15.60;64.30;;;14.32;63.70;99170.97;12291236;19;19923;-83
2023/10/26 13:35:10;;;;;;;;;;;15.60;64.40;;;14.46;63.46;99194.09;12289651;19;19927;-84
2023/10/26 13:39:12;;;;;;;;;;;15.60;64.40;;;14.47;63.66;99190.50;12290009;19;19919;-84
2023/10/26 13:43:16;;;;;;;;;;;15.60;64.50;;;14.38;63.45;99170.38;12292694;19;19925;-83
2023/10/26 13:47:17;;;;;;;;;;;15.60;64.40;;;14.39;63.63;99177.28;12292807;19;19914;-84
2023/10/26 13:51:20;;;;;;;;;;;15.60;64.40;;;14.43;63.35;99180.44;12288246;19;19918;-84
2023/10/26 13:55:21;;;;;;;;;;;15.60;64.40;;;14.46;63.56;99194.09;12290311;19;19923;-84
2023/10/26 13:59:23;;;;;;;;;;;15.60;64.40;;;14.42;63.53;99192.75;12288727;19;19959;-84
2023/10/26 14:03:24;;;;;;;;;;;15.50;64.20;;;14.34;63.61;99180.38;12289903;19;19930;-85
2023/10/26 14:07:25;;;;;;;;;;;15.50;64.30;;;14.43;63.59;99191.78;12283859;19;19915;-83
2023/10/26 14:11:29;;;;;;;;;;;15.50;64.40;;;14.43;63.50;99193.59;12283198;19;19947;-85
2023/10/26 14:15:34;;;;;;;;;;;15.50;64.40;;;14.44;63.50;99200.47;12289664;19;19951;-84
2023/10/26 14:19:36;;;;;;;;;;;15.50;64.30;;;14.44;63.45;99209.19;12288265;19;20035;-85
2023/10/26 14:23:37;;;;;;;;;;;15.50;64.30;;;14.45;63.57;99208.22;12288238;19;19927;-83
2023/10/26 14:27:39;;;;;;;;;;;15.50;64.30;;;14.45;63.54;99202.16;12286740;19;19911;-84
2023/10/26 14:31:41;;;;;;;;;;;15.60;64.40;;;14.45;63.67;99202.97;12289410;19;19923;-83
2023/10/26 14:35:42;;;;;;;;;;;15.60;64.40;;;14.16;63.60;99158.50;12286257;19;19926;-84
2023/10/26 14:39:47;;;;;;;;;;;15.60;64.40;;;14.50;63.66;99205.13;12281882;19;19923;-83
2023/10/26 14:43:49;;;;;;;;;;;15.60;64.40;;;14.51;63.59;99207.63;12281509;19;19915;-82
2023/10/26 14:47:51;;;;;;;;;;;15.60;64.40;;;14.50;63.64;99202.50;12284273;19;19918;-83
2023/10/26 14:51:53;;;;;;;;;;;15.60;64.20;;;14.45;63.54;99196.91;12285087;19;19918;-84
2023/10/26 14:56:02;;;;;;;;;;;15.60;64.20;;;14.50;63.56;99208.63;12286529;19;19943;-85
2023/10/26 15:00:04;;;;;;;;;;;15.60;64.20;;;14.50;63.70;99208.63;12278861;19;19926;-83
2023/10/26 15:04:07;;;;;;;;;;;15.60;64.30;;;14.16;63.56;99156.69;12281018;19;19928;-86
2023/10/26 15:08:08;;;;;;;;;;;15.60;64.20;;;14.50;63.52;99211.25;12280722;19;19907;-83
2023/10/26 15:12:10;;;;;;;;;;;15.60;64.10;;;14.32;63.53;99187.56;12280370;19;19918;-84
2023/10/26 15:16:12;;;;;;;;;;;15.60;64.10;;;14.32;63.69;99178.84;12280995;19;19950;-84
2023/10/26 15:20:15;;;;;;;;;;;15.60;64.10;;;14.47;63.65;99200.19;12282006;19;19923;-84
2023/10/26 15:24:17;;;;;;;;;;;15.60;64.10;;;14.47;63.64;99202.81;12281104;19;19929;-83
2023/10/26 15:28:19;;;;;;;;;;;15.60;64.20;;;14.37;63.53;99190.56;12275830;19;19951;-83
2023/10/26 15:32:21;;;;;;;;;;;15.60;64.20;;;14.27;63.66;99179.28;12284592;19;19926;-84
2023/10/26 15:36:22;;;;;;;;;;;15.60;64.20;;;14.46;63.54;99199.38;12284051;19;19919;-83
2023/10/26 15:40:24;;;;;;;;;;;15.60;64.20;;;14.45;63.56;99192.47;12282286;19;19931;-83
2023/10/26 15:44:25;;;;;;;;;;;15.60;64.20;;;14.47;63.53;99202.81;12283163;19;19922;-84
2023/10/26 15:48:27;;;;;;;;;;;15.60;64.20;;;14.47;63.64;99211.50;12280186;19;20182;-83
2023/10/26 15:52:29;;;;;;;;;;;15.60;64.20;;;14.43;63.67;99189.16;12276563;19;20365;-83
2023/10/26 15:56:31;;;;;;;;;;;15.60;64.20;;;14.32;63.49;99184.94;12266200;19;19919;-83
2023/10/26 16:00:32;;;;;;;;;;;15.60;64.20;;;14.40;63.42;99192.09;12266816;19;19930;-83
2023/10/26 16:04:34;;;;;;;;;;;15.60;64.20;;;14.34;63.53;99190.88;12262172;19;19926;-84
2023/10/26 16:08:37;;;;;;;;;;;15.50;64.10;;;14.45;63.49;99202.16;12265658;19;19918;-83
2023/10/26 16:12:38;;;;;;;;;;;15.50;64.20;;;14.21;63.49;99165.94;12270241;19;19926;-83
2023/10/26 16:16:40;;;;;;;;;;;15.50;64.10;;;14.43;63.60;99199.66;12273440;19;19911;-83
2023/10/26 16:20:45;;;;;;;;;;;15.50;64.10;;;14.28;63.61;99180.94;12265003;19;20211;-84
2023/10/26 16:24:51;;;;;;;;;;;15.50;64.20;;;14.36;63.68;99198.59;12266779;19;19935;-84
2023/10/26 16:28:52;;;;;;;;;;;15.50;64.10;;;14.30;63.55;99186.06;12269916;19;19919;-83
2023/10/26 16:32:53;;;;;;;;;;;15.50;64.30;;;14.39;63.64;99201.75;12267264;19;19929;-83
2023/10/26 16:36:55;;;;;;;;;;;15.50;64.20;;;14.23;63.46;99174.47;12272149;19;20214;-84
2023/10/26 16:40:58;;;;;;;;;;;15.50;64.20;;;14.31;63.61;99191.16;12262188;19;19942;-84
2023/10/26 16:44:59;;;;;;;;;;;15.50;64.20;;;14.38;63.65;99205.34;12263853;19;20326;-83
2023/10/26 16:49:01;;;;;;;;;;;15.50;64.20;;;14.37;63.63;99200.25;12257396;19;19915;-85
2023/10/26 16:53:02;;;;;;;;;;;15.50;64.30;;;14.38;63.60;99209.78;12268606;19;19919;-83
2023/10/26 16:57:07;;;;;;;;;;;15.50;64.30;;;14.39;63.66;99207.03;12268383;19;20004;-85
2023/10/26 17:01:10;;;;;;;;;;;15.50;64.20;;;14.37;63.69;99210.75;12266330;19;19926;-85
2023/10/26 17:05:11;;;;;;;;;;;15.50;64.10;;;14.19;63.50;99171.31;12268100;19;19942;-84
2023/10/26 17:09:13;;;;;;;;;;;15.50;64.10;;;14.38;63.64;99205.34;12265579;19;19918;-85
2023/10/26 17:13:17;;;;;;;;;;;15.50;64.80;;;14.28;63.69;99187.97;12267806;19;19926;-84
2023/10/26 17:17:19;;;;;;;;;;;15.50;64.00;;;14.35;63.62;99203.00;12266533;19;19929;-84
2023/10/26 17:21:22;;;;;;;;;;;15.50;63.90;;;14.32;63.58;99199.88;12263782;19;19919;-84
2023/10/26 17:25:23;;;;;;;;;;;15.50;64.00;;;14.35;63.56;99217.94;12264899;19;19923;-83
2023/10/26 17:29:25;;;;;;;;;;;15.40;64.00;;;14.02;63.53;99165.06;12266596;19;19923;-83
2023/10/26 17:33:26;;;;;;;;;;;15.40;64.10;;;14.31;63.64;99208.69;12269067;19;19936;-83
2023/10/26 17:37:28;;;;;;;;;;;15.40;64.10;;;14.16;63.66;99182.94;12268560;19;19922;-84
2023/10/26 17:41:30;;;;;;;;;;;15.40;64.00;;;14.24;63.52;99190.09;12264918;19;19956;-83
2023/10/26 17:45:32;;;;;;;;;;;15.40;64.10;;;14.31;63.67;99203.44;12271254;19;19979;-84
2023/10/26 17:49:34;;;;;;;;;;;15.40;63.90;;;14.24;63.56;99197.16;12276452;19;19922;-82
2023/10/26 17:53:38;;;;;;;;;;;15.40;64.10;;;14.32;63.58;99202.50;12281152;19;19919;-83
2023/10/26 17:57:40;;;;;;;;;;;15.40;64.20;;;14.31;63.47;99200.81;12282859;19;19968;-85
2023/10/26 18:01:41;;;;;;;;;;;15.40;64.10;;;14.24;63.34;99186.66;12283190;19;19926;-83
2023/10/26 18:05:43;;;;;;;;;;;15.40;64.00;;;14.27;63.49;99209.97;12282467;19;19911;-83
2023/10/26 18:09:45;;;;;;;;;;;15.40;64.00;;;14.27;63.47;99205.53;12279875;19;19931;-83
2023/10/26 18:13:47;;;;;;;;;;;15.40;64.10;;;14.10;63.76;99183.53;12280615;19;19919;-83
2023/10/26 18:17:48;;;;;;;;;;;15.40;64.10;;;14.25;63.55;99206.66;12280307;19;19922;-83
2023/10/26 18:21:50;;;;;;;;;;;15.40;64.20;;;14.24;63.47;99205.84;12281889;19;19919;-83